sensor_id;sensor_type;location;lat;lon;timestamp;P1;durP1;ratioP1;P2;durP2;ratioP2
23206;SDS011;11773;52.570;13.052;2023-07-22T00:01:05;1.07;;;1.00;;
23206;SDS011;11773;52.570;13.052;2023-07-22T00:03:35;0.60;;;0.60;;
23206;SDS011;11773;52.570;13.052;2023-07-22T00:06:08;0.60;;;0.60;;
23206;SDS011;11773;52.570;13.052;2023-07-22T00:08:39;0.43;;;0.43;;
23206;SDS011;11773;52.570;13.052;2023-07-22T00:11:08;0.57;;;0.57;;
23206;SDS011;11773;52.570;13.052;2023-07-22T00:13:38;0.50;;;0.50;;
23206;SDS011;11773;52.570;13.052;2023-07-22T00:16:07;0.40;;;0.40;;
23206;SDS011;11773;52.570;13.052;2023-07-22T00:18:37;0.80;;;0.80;;
23206;SDS011;11773;52.570;13.052;2023-07-22T00:21:07;0.40;;;0.40;;
23206;SDS011;11773;52.570;13.052;2023-07-22T00:23:37;0.57;;;0.57;;
23206;SDS011;11773;52.570;13.052;2023-07-22T00:26:07;0.70;;;0.70;;
23206;SDS011;11773;52.570;13.052;2023-07-22T00:28:37;0.63;;;0.63;;
23206;SDS011;11773;52.570;13.052;2023-07-22T00:31:07;0.50;;;0.50;;
23206;SDS011;11773;52.570;13.052;2023-07-22T00:33:37;0.50;;;0.50;;
23206;SDS011;11773;52.570;13.052;2023-07-22T00:36:06;1.70;;;0.53;;
23206;SDS011;11773;52.570;13.052;2023-07-22T00:38:36;0.60;;;0.60;;
23206;SDS011;11773;52.570;13.052;2023-07-22T00:41:07;0.70;;;0.70;;
23206;SDS011;11773;52.570;13.052;2023-07-22T00:43:37;0.60;;;0.60;;
23206;SDS011;11773;52.570;13.052;2023-07-22T00:46:07;0.43;;;0.43;;
23206;SDS011;11773;52.570;13.052;2023-07-22T00:48:36;0.60;;;0.60;;
23206;SDS011;11773;52.570;13.052;2023-07-22T00:51:07;0.87;;;0.67;;
23206;SDS011;11773;52.570;13.052;2023-07-22T00:53:37;0.53;;;0.53;;
23206;SDS011;11773;52.570;13.052;2023-07-22T00:56:07;0.60;;;0.60;;
23206;SDS011;11773;52.570;13.052;2023-07-22T00:58:37;0.50;;;0.50;;
23206;SDS011;11773;52.570;13.052;2023-07-22T01:01:06;0.60;;;0.60;;
23206;SDS011;11773;52.570;13.052;2023-07-22T01:03:36;0.60;;;0.60;;
23206;SDS011;11773;52.570;13.052;2023-07-22T01:06:06;0.77;;;0.77;;
23206;SDS011;11773;52.570;13.052;2023-07-22T01:08:38;0.50;;;0.50;;
23206;SDS011;11773;52.570;13.052;2023-07-22T01:11:08;0.50;;;0.50;;
23206;SDS011;11773;52.570;13.052;2023-07-22T01:13:37;0.50;;;0.50;;
23206;SDS011;11773;52.570;13.052;2023-07-22T01:16:08;0.50;;;0.50;;
23206;SDS011;11773;52.570;13.052;2023-07-22T01:18:37;0.97;;;0.90;;
23206;SDS011;11773;52.570;13.052;2023-07-22T01:21:07;0.50;;;0.50;;
23206;SDS011;11773;52.570;13.052;2023-07-22T01:23:39;0.53;;;0.53;;
23206;SDS011;11773;52.570;13.052;2023-07-22T01:26:18;0.60;;;0.60;;
23206;SDS011;11773;52.570;13.052;2023-07-22T01:28:48;0.53;;;0.53;;
23206;SDS011;11773;52.570;13.052;2023-07-22T01:31:17;0.47;;;0.47;;
23206;SDS011;11773;52.570;13.052;2023-07-22T01:33:47;0.57;;;0.57;;
23206;SDS011;11773;52.570;13.052;2023-07-22T01:36:17;0.60;;;0.60;;
23206;SDS011;11773;52.570;13.052;2023-07-22T01:38:46;0.73;;;0.60;;
23206;SDS011;11773;52.570;13.052;2023-07-22T01:41:16;1.22;;;1.12;;
23206;SDS011;11773;52.570;13.052;2023-07-22T01:43:45;0.43;;;0.43;;
23206;SDS011;11773;52.570;13.052;2023-07-22T01:46:15;0.87;;;0.87;;
23206;SDS011;11773;52.570;13.052;2023-07-22T01:48:45;0.63;;;0.60;;
23206;SDS011;11773;52.570;13.052;2023-07-22T01:51:15;0.47;;;0.47;;
23206;SDS011;11773;52.570;13.052;2023-07-22T01:53:44;0.50;;;0.50;;
23206;SDS011;11773;52.570;13.052;2023-07-22T01:56:14;0.53;;;0.53;;
23206;SDS011;11773;52.570;13.052;2023-07-22T01:58:44;0.50;;;0.40;;
23206;SDS011;11773;52.570;13.052;2023-07-22T02:01:14;0.73;;;0.70;;
23206;SDS011;11773;52.570;13.052;2023-07-22T02:03:44;0.50;;;0.50;;
23206;SDS011;11773;52.570;13.052;2023-07-22T02:06:14;0.50;;;0.50;;
23206;SDS011;11773;52.570;13.052;2023-07-22T02:08:43;0.70;;;0.70;;
23206;SDS011;11773;52.570;13.052;2023-07-22T02:11:13;0.50;;;0.50;;
23206;SDS011;11773;52.570;13.052;2023-07-22T02:13:42;0.50;;;0.50;;
23206;SDS011;11773;52.570;13.052;2023-07-22T02:16:12;0.43;;;0.40;;
23206;SDS011;11773;52.570;13.052;2023-07-22T02:18:44;0.50;;;0.50;;
23206;SDS011;11773;52.570;13.052;2023-07-22T02:21:14;0.63;;;0.63;;
23206;SDS011;11773;52.570;13.052;2023-07-22T02:23:44;0.37;;;0.37;;
23206;SDS011;11773;52.570;13.052;2023-07-22T02:26:13;0.40;;;0.40;;
23206;SDS011;11773;52.570;13.052;2023-07-22T02:28:43;0.47;;;0.47;;
23206;SDS011;11773;52.570;13.052;2023-07-22T02:31:13;0.30;;;0.30;;
23206;SDS011;11773;52.570;13.052;2023-07-22T02:33:43;0.40;;;0.40;;
23206;SDS011;11773;52.570;13.052;2023-07-22T02:36:13;0.33;;;0.33;;
23206;SDS011;11773;52.570;13.052;2023-07-22T02:38:43;0.57;;;0.57;;
23206;SDS011;11773;52.570;13.052;2023-07-22T02:41:13;0.40;;;0.40;;
23206;SDS011;11773;52.570;13.052;2023-07-22T02:43:42;0.30;;;0.30;;
23206;SDS011;11773;52.570;13.052;2023-07-22T02:46:12;0.40;;;0.37;;
23206;SDS011;11773;52.570;13.052;2023-07-22T02:48:41;0.30;;;0.30;;
23206;SDS011;11773;52.570;13.052;2023-07-22T02:51:11;0.50;;;0.50;;
23206;SDS011;11773;52.570;13.052;2023-07-22T02:53:41;0.30;;;0.30;;
23206;SDS011;11773;52.570;13.052;2023-07-22T02:56:12;0.30;;;0.30;;
23206;SDS011;11773;52.570;13.052;2023-07-22T02:58:42;0.47;;;0.47;;
23206;SDS011;11773;52.570;13.052;2023-07-22T03:01:12;0.20;;;0.20;;
23206;SDS011;11773;52.570;13.052;2023-07-22T03:03:41;0.30;;;0.30;;
23206;SDS011;11773;52.570;13.052;2023-07-22T03:06:11;0.40;;;0.40;;
23206;SDS011;11773;52.570;13.052;2023-07-22T03:08:41;0.33;;;0.33;;
23206;SDS011;11773;52.570;13.052;2023-07-22T03:11:11;0.47;;;0.47;;
23206;SDS011;11773;52.570;13.052;2023-07-22T03:13:40;0.50;;;0.50;;
23206;SDS011;11773;52.570;13.052;2023-07-22T03:16:10;0.30;;;0.30;;
23206;SDS011;11773;52.570;13.052;2023-07-22T03:18:42;0.30;;;0.30;;
23206;SDS011;11773;52.570;13.052;2023-07-22T03:21:11;0.30;;;0.30;;
23206;SDS011;11773;52.570;13.052;2023-07-22T03:23:41;0.30;;;0.30;;
23206;SDS011;11773;52.570;13.052;2023-07-22T03:26:10;0.30;;;0.30;;
23206;SDS011;11773;52.570;13.052;2023-07-22T03:28:40;0.30;;;0.30;;
23206;SDS011;11773;52.570;13.052;2023-07-22T03:31:10;0.50;;;0.50;;
23206;SDS011;11773;52.570;13.052;2023-07-22T03:33:39;0.40;;;0.40;;
23206;SDS011;11773;52.570;13.052;2023-07-22T03:36:11;0.40;;;0.40;;
23206;SDS011;11773;52.570;13.052;2023-07-22T03:38:40;0.50;;;0.50;;
23206;SDS011;11773;52.570;13.052;2023-07-22T03:41:10;0.30;;;0.30;;
23206;SDS011;11773;52.570;13.052;2023-07-22T03:43:39;0.50;;;0.50;;
23206;SDS011;11773;52.570;13.052;2023-07-22T03:46:10;0.47;;;0.40;;
23206;SDS011;11773;52.570;13.052;2023-07-22T03:48:40;0.60;;;0.60;;
23206;SDS011;11773;52.570;13.052;2023-07-22T03:51:09;0.50;;;0.50;;
23206;SDS011;11773;52.570;13.052;2023-07-22T03:53:40;0.60;;;0.60;;
23206;SDS011;11773;52.570;13.052;2023-07-22T03:56:10;0.80;;;0.80;;
23206;SDS011;11773;52.570;13.052;2023-07-22T03:58:40;0.83;;;0.80;;
23206;SDS011;11773;52.570;13.052;2023-07-22T04:01:12;0.60;;;0.60;;
23206;SDS011;11773;52.570;13.052;2023-07-22T04:03:42;0.70;;;0.70;;
23206;SDS011;11773;52.570;13.052;2023-07-22T04:06:12;0.73;;;0.73;;
23206;SDS011;11773;52.570;13.052;2023-07-22T04:08:41;0.83;;;0.63;;
23206;SDS011;11773;52.570;13.052;2023-07-22T04:11:12;0.60;;;0.60;;
23206;SDS011;11773;52.570;13.052;2023-07-22T04:13:42;1.23;;;0.50;;
23206;SDS011;11773;52.570;13.052;2023-07-22T04:16:11;0.50;;;0.50;;
23206;SDS011;11773;52.570;13.052;2023-07-22T04:18:41;0.57;;;0.57;;
23206;SDS011;11773;52.570;13.052;2023-07-22T04:21:10;0.40;;;0.40;;
23206;SDS011;11773;52.570;13.052;2023-07-22T04:23:40;0.40;;;0.40;;
23206;SDS011;11773;52.570;13.052;2023-07-22T04:26:10;0.40;;;0.40;;
23206;SDS011;11773;52.570;13.052;2023-07-22T04:28:39;1.13;;;0.80;;
23206;SDS011;11773;52.570;13.052;2023-07-22T04:31:09;0.50;;;0.50;;
23206;SDS011;11773;52.570;13.052;2023-07-22T04:33:38;0.40;;;0.40;;
23206;SDS011;11773;52.570;13.052;2023-07-22T04:36:08;0.80;;;0.80;;
23206;SDS011;11773;52.570;13.052;2023-07-22T04:38:38;0.60;;;0.60;;
23206;SDS011;11773;52.570;13.052;2023-07-22T04:41:07;0.53;;;0.50;;
23206;SDS011;11773;52.570;13.052;2023-07-22T04:43:37;0.47;;;0.40;;
23206;SDS011;11773;52.570;13.052;2023-07-22T04:46:07;0.50;;;0.50;;
23206;SDS011;11773;52.570;13.052;2023-07-22T04:48:36;0.97;;;0.40;;
23206;SDS011;11773;52.570;13.052;2023-07-22T04:51:06;1.40;;;0.50;;
23206;SDS011;11773;52.570;13.052;2023-07-22T04:53:36;0.57;;;0.57;;
23206;SDS011;11773;52.570;13.052;2023-07-22T04:56:06;0.70;;;0.70;;
23206;SDS011;11773;52.570;13.052;2023-07-22T04:58:35;0.83;;;0.70;;
23206;SDS011;11773;52.570;13.052;2023-07-22T05:01:05;0.70;;;0.70;;
23206;SDS011;11773;52.570;13.052;2023-07-22T05:03:36;0.53;;;0.53;;
23206;SDS011;11773;52.570;13.052;2023-07-22T05:06:05;0.70;;;0.70;;
23206;SDS011;11773;52.570;13.052;2023-07-22T05:08:35;1.30;;;1.20;;
23206;SDS011;11773;52.570;13.052;2023-07-22T05:11:06;1.10;;;1.00;;
23206;SDS011;11773;52.570;13.052;2023-07-22T05:13:36;1.40;;;1.30;;
23206;SDS011;11773;52.570;13.052;2023-07-22T05:16:05;1.17;;;1.07;;
23206;SDS011;11773;52.570;13.052;2023-07-22T05:18:35;1.60;;;1.50;;
23206;SDS011;11773;52.570;13.052;2023-07-22T05:21:06;1.33;;;1.23;;
23206;SDS011;11773;52.570;13.052;2023-07-22T05:23:35;1.37;;;1.27;;
23206;SDS011;11773;52.570;13.052;2023-07-22T05:26:05;1.53;;;1.43;;
23206;SDS011;11773;52.570;13.052;2023-07-22T05:28:34;1.50;;;1.40;;
23206;SDS011;11773;52.570;13.052;2023-07-22T05:31:04;1.67;;;1.57;;
23206;SDS011;11773;52.570;13.052;2023-07-22T05:33:34;2.27;;;2.07;;
23206;SDS011;11773;52.570;13.052;2023-07-22T05:36:04;1.80;;;1.70;;
23206;SDS011;11773;52.570;13.052;2023-07-22T05:38:34;1.80;;;1.70;;
23206;SDS011;11773;52.570;13.052;2023-07-22T05:41:03;1.93;;;1.73;;
23206;SDS011;11773;52.570;13.052;2023-07-22T05:43:33;2.00;;;1.90;;
23206;SDS011;11773;52.570;13.052;2023-07-22T05:46:03;2.47;;;2.20;;
23206;SDS011;11773;52.570;13.052;2023-07-22T05:48:33;1.93;;;1.83;;
23206;SDS011;11773;52.570;13.052;2023-07-22T05:51:02;2.03;;;1.80;;
23206;SDS011;11773;52.570;13.052;2023-07-22T05:53:32;2.40;;;2.20;;
23206;SDS011;11773;52.570;13.052;2023-07-22T05:56:02;2.30;;;2.10;;
23206;SDS011;11773;52.570;13.052;2023-07-22T05:58:31;2.30;;;2.10;;
23206;SDS011;11773;52.570;13.052;2023-07-22T06:01:02;1.82;;;1.72;;
23206;SDS011;11773;52.570;13.052;2023-07-22T06:03:31;1.77;;;1.67;;
23206;SDS011;11773;52.570;13.052;2023-07-22T06:06:01;2.63;;;2.10;;
23206;SDS011;11773;52.570;13.052;2023-07-22T06:08:31;1.77;;;1.67;;
23206;SDS011;11773;52.570;13.052;2023-07-22T06:11:01;1.80;;;1.70;;
23206;SDS011;11773;52.570;13.052;2023-07-22T06:13:30;2.30;;;2.10;;
23206;SDS011;11773;52.570;13.052;2023-07-22T06:16:00;1.63;;;1.53;;
23206;SDS011;11773;52.570;13.052;2023-07-22T06:18:29;2.20;;;2.00;;
23206;SDS011;11773;52.570;13.052;2023-07-22T06:20:59;2.93;;;1.67;;
23206;SDS011;11773;52.570;13.052;2023-07-22T06:23:29;2.27;;;2.07;;
23206;SDS011;11773;52.570;13.052;2023-07-22T06:25:58;2.17;;;2.00;;
23206;SDS011;11773;52.570;13.052;2023-07-22T06:28:29;1.90;;;1.80;;
23206;SDS011;11773;52.570;13.052;2023-07-22T06:30:58;1.70;;;1.60;;
23206;SDS011;11773;52.570;13.052;2023-07-22T06:33:28;1.70;;;1.60;;
23206;SDS011;11773;52.570;13.052;2023-07-22T06:35:58;1.70;;;1.60;;
23206;SDS011;11773;52.570;13.052;2023-07-22T06:38:28;1.83;;;1.73;;
23206;SDS011;11773;52.570;13.052;2023-07-22T06:40:57;1.80;;;1.70;;
23206;SDS011;11773;52.570;13.052;2023-07-22T06:43:27;1.80;;;1.70;;
23206;SDS011;11773;52.570;13.052;2023-07-22T06:45:57;1.80;;;1.70;;
23206;SDS011;11773;52.570;13.052;2023-07-22T06:48:27;1.80;;;1.70;;
23206;SDS011;11773;52.570;13.052;2023-07-22T06:50:56;1.80;;;1.70;;
23206;SDS011;11773;52.570;13.052;2023-07-22T06:53:26;2.00;;;1.77;;
23206;SDS011;11773;52.570;13.052;2023-07-22T06:55:55;1.93;;;1.83;;
23206;SDS011;11773;52.570;13.052;2023-07-22T06:58:25;2.10;;;1.83;;
23206;SDS011;11773;52.570;13.052;2023-07-22T07:00:55;2.20;;;2.00;;
23206;SDS011;11773;52.570;13.052;2023-07-22T07:03:24;1.77;;;1.67;;
23206;SDS011;11773;52.570;13.052;2023-07-22T07:05:54;1.87;;;1.77;;
23206;SDS011;11773;52.570;13.052;2023-07-22T07:08:25;1.77;;;1.67;;
23206;SDS011;11773;52.570;13.052;2023-07-22T07:10:55;1.97;;;1.87;;
23206;SDS011;11773;52.570;13.052;2023-07-22T07:13:26;2.93;;;2.10;;
23206;SDS011;11773;52.570;13.052;2023-07-22T07:15:55;2.40;;;2.20;;
23206;SDS011;11773;52.570;13.052;2023-07-22T07:18:26;2.30;;;2.00;;
23206;SDS011;11773;52.570;13.052;2023-07-22T07:20:56;2.50;;;2.07;;
23206;SDS011;11773;52.570;13.052;2023-07-22T07:23:25;2.07;;;1.87;;
23206;SDS011;11773;52.570;13.052;2023-07-22T07:25:55;2.00;;;1.90;;
23206;SDS011;11773;52.570;13.052;2023-07-22T07:28:26;2.00;;;1.80;;
23206;SDS011;11773;52.570;13.052;2023-07-22T07:30:56;2.90;;;2.07;;
23206;SDS011;11773;52.570;13.052;2023-07-22T07:33:25;1.90;;;1.80;;
23206;SDS011;11773;52.570;13.052;2023-07-22T07:35:55;2.10;;;1.90;;
23206;SDS011;11773;52.570;13.052;2023-07-22T07:38:25;2.30;;;2.10;;
23206;SDS011;11773;52.570;13.052;2023-07-22T07:40:56;2.00;;;1.90;;
23206;SDS011;11773;52.570;13.052;2023-07-22T07:43:29;2.20;;;2.00;;
23206;SDS011;11773;52.570;13.052;2023-07-22T07:46:12;1.83;;;1.73;;
23206;SDS011;11773;52.570;13.052;2023-07-22T07:48:49;2.50;;;2.30;;
23206;SDS011;11773;52.570;13.052;2023-07-22T07:51:22;2.93;;;2.10;;
23206;SDS011;11773;52.570;13.052;2023-07-22T07:53:54;2.30;;;2.10;;
23206;SDS011;11773;52.570;13.052;2023-07-22T07:56:25;2.40;;;2.10;;
23206;SDS011;11773;52.570;13.052;2023-07-22T07:58:56;2.27;;;2.00;;
23206;SDS011;11773;52.570;13.052;2023-07-22T08:01:26;1.73;;;1.63;;
23206;SDS011;11773;52.570;13.052;2023-07-22T08:03:55;1.90;;;1.80;;
23206;SDS011;11773;52.570;13.052;2023-07-22T08:06:25;1.80;;;1.70;;
23206;SDS011;11773;52.570;13.052;2023-07-22T08:08:55;1.90;;;1.80;;
23206;SDS011;11773;52.570;13.052;2023-07-22T08:11:26;1.70;;;1.60;;
23206;SDS011;11773;52.570;13.052;2023-07-22T08:13:57;1.80;;;1.70;;
23206;SDS011;11773;52.570;13.052;2023-07-22T08:16:27;2.47;;;2.27;;
23206;SDS011;11773;52.570;13.052;2023-07-22T08:18:57;2.63;;;2.07;;
23206;SDS011;11773;52.570;13.052;2023-07-22T08:21:27;2.47;;;2.27;;
23206;SDS011;11773;52.570;13.052;2023-07-22T08:23:56;2.63;;;2.10;;
23206;SDS011;11773;52.570;13.052;2023-07-22T08:26:26;2.00;;;1.90;;
23206;SDS011;11773;52.570;13.052;2023-07-22T08:28:57;2.17;;;1.97;;
23206;SDS011;11773;52.570;13.052;2023-07-22T08:31:27;2.10;;;1.97;;
23206;SDS011;11773;52.570;13.052;2023-07-22T08:33:57;2.00;;;1.90;;
23206;SDS011;11773;52.570;13.052;2023-07-22T08:36:27;2.23;;;2.00;;
23206;SDS011;11773;52.570;13.052;2023-07-22T08:38:57;2.20;;;2.00;;
23206;SDS011;11773;52.570;13.052;2023-07-22T08:41:26;2.57;;;2.10;;
23206;SDS011;11773;52.570;13.052;2023-07-22T08:43:59;1.87;;;1.77;;
23206;SDS011;11773;52.570;13.052;2023-07-22T08:46:29;2.37;;;1.60;;
23206;SDS011;11773;52.570;13.052;2023-07-22T08:49:03;1.77;;;1.67;;
23206;SDS011;11773;52.570;13.052;2023-07-22T08:51:35;2.10;;;1.90;;
23206;SDS011;11773;52.570;13.052;2023-07-22T08:54:08;2.73;;;1.77;;
23206;SDS011;11773;52.570;13.052;2023-07-22T08:56:38;1.80;;;1.70;;
23206;SDS011;11773;52.570;13.052;2023-07-22T08:59:09;1.60;;;1.50;;
23206;SDS011;11773;52.570;13.052;2023-07-22T09:01:41;1.70;;;1.60;;
23206;SDS011;11773;52.570;13.052;2023-07-22T09:04:11;2.30;;;2.10;;
23206;SDS011;11773;52.570;13.052;2023-07-22T09:06:41;2.27;;;1.67;;
23206;SDS011;11773;52.570;13.052;2023-07-22T09:09:12;2.30;;;2.10;;
23206;SDS011;11773;52.570;13.052;2023-07-22T09:11:42;1.60;;;1.50;;
23206;SDS011;11773;52.570;13.052;2023-07-22T09:14:15;2.10;;;2.00;;
23206;SDS011;11773;52.570;13.052;2023-07-22T09:16:49;2.10;;;1.77;;
23206;SDS011;11773;52.570;13.052;2023-07-22T09:19:18;1.53;;;1.43;;
23206;SDS011;11773;52.570;13.052;2023-07-22T09:21:48;1.43;;;1.33;;
23206;SDS011;11773;52.570;13.052;2023-07-22T09:24:21;1.60;;;1.50;;
23206;SDS011;11773;52.570;13.052;2023-07-22T09:26:55;1.33;;;1.23;;
23206;SDS011;11773;52.570;13.052;2023-07-22T09:29:34;1.10;;;1.10;;
23206;SDS011;11773;52.570;13.052;2023-07-22T09:32:07;1.03;;;0.97;;
23206;SDS011;11773;52.570;13.052;2023-07-22T09:34:37;1.30;;;1.20;;
23206;SDS011;11773;52.570;13.052;2023-07-22T09:37:08;1.43;;;1.33;;
23206;SDS011;11773;52.570;13.052;2023-07-22T09:39:38;1.30;;;1.20;;
23206;SDS011;11773;52.570;13.052;2023-07-22T09:42:11;1.27;;;1.17;;
23206;SDS011;11773;52.570;13.052;2023-07-22T09:44:48;1.20;;;1.10;;
23206;SDS011;11773;52.570;13.052;2023-07-22T09:47:17;0.90;;;0.90;;
23206;SDS011;11773;52.570;13.052;2023-07-22T09:49:47;1.20;;;1.10;;
23206;SDS011;11773;52.570;13.052;2023-07-22T09:52:18;1.40;;;1.30;;
23206;SDS011;11773;52.570;13.052;2023-07-22T09:54:50;1.27;;;1.17;;
23206;SDS011;11773;52.570;13.052;2023-07-22T09:57:19;1.50;;;1.40;;
23206;SDS011;11773;52.570;13.052;2023-07-22T09:59:53;1.33;;;1.23;;
23206;SDS011;11773;52.570;13.052;2023-07-22T10:02:23;1.43;;;1.23;;
23206;SDS011;11773;52.570;13.052;2023-07-22T10:04:53;1.43;;;1.33;;
23206;SDS011;11773;52.570;13.052;2023-07-22T10:07:27;1.57;;;1.47;;
23206;SDS011;11773;52.570;13.052;2023-07-22T10:09:59;1.30;;;1.20;;
23206;SDS011;11773;52.570;13.052;2023-07-22T10:12:30;1.43;;;1.30;;
23206;SDS011;11773;52.570;13.052;2023-07-22T10:15:00;1.60;;;1.50;;
23206;SDS011;11773;52.570;13.052;2023-07-22T10:17:33;1.50;;;1.40;;
23206;SDS011;11773;52.570;13.052;2023-07-22T10:20:03;1.07;;;1.03;;
23206;SDS011;11773;52.570;13.052;2023-07-22T10:22:35;1.37;;;1.13;;
23206;SDS011;11773;52.570;13.052;2023-07-22T10:25:06;1.70;;;1.60;;
23206;SDS011;11773;52.570;13.052;2023-07-22T10:27:35;1.63;;;1.53;;
23206;SDS011;11773;52.570;13.052;2023-07-22T10:30:11;1.37;;;1.27;;
23206;SDS011;11773;52.570;13.052;2023-07-22T10:32:45;1.10;;;1.10;;
23206;SDS011;11773;52.570;13.052;2023-07-22T10:35:22;1.53;;;1.43;;
23206;SDS011;11773;52.570;13.052;2023-07-22T10:38:19;1.80;;;1.70;;
23206;SDS011;11773;52.570;13.052;2023-07-22T10:40:53;1.37;;;1.27;;
23206;SDS011;11773;52.570;13.052;2023-07-22T10:43:27;1.27;;;1.20;;
23206;SDS011;11773;52.570;13.052;2023-07-22T10:46:12;1.20;;;1.20;;
23206;SDS011;11773;52.570;13.052;2023-07-22T10:48:42;1.40;;;1.30;;
23206;SDS011;11773;52.570;13.052;2023-07-22T10:51:12;1.80;;;1.70;;
23206;SDS011;11773;52.570;13.052;2023-07-22T10:53:46;1.47;;;1.37;;
23206;SDS011;11773;52.570;13.052;2023-07-22T10:56:21;1.43;;;1.33;;
23206;SDS011;11773;52.570;13.052;2023-07-22T11:07:04;1.13;;;1.03;;
23206;SDS011;11773;52.570;13.052;2023-07-22T11:09:34;1.30;;;1.20;;
23206;SDS011;11773;52.570;13.052;2023-07-22T11:12:09;1.33;;;1.23;;
23206;SDS011;11773;52.570;13.052;2023-07-22T11:14:48;1.00;;;1.00;;
23206;SDS011;11773;52.570;13.052;2023-07-22T11:17:29;1.30;;;1.20;;
23206;SDS011;11773;52.570;13.052;2023-07-22T11:20:02;1.67;;;1.43;;
23206;SDS011;11773;52.570;13.052;2023-07-22T11:22:32;1.37;;;1.27;;
23206;SDS011;11773;52.570;13.052;2023-07-22T11:25:02;1.27;;;1.17;;
23206;SDS011;11773;52.570;13.052;2023-07-22T11:27:32;1.93;;;1.80;;
23206;SDS011;11773;52.570;13.052;2023-07-22T11:30:03;1.73;;;1.63;;
23206;SDS011;11773;52.570;13.052;2023-07-22T11:32:34;1.60;;;1.50;;
23206;SDS011;11773;52.570;13.052;2023-07-22T11:35:07;1.63;;;1.53;;
23206;SDS011;11773;52.570;13.052;2023-07-22T11:37:38;1.87;;;1.73;;
23206;SDS011;11773;52.570;13.052;2023-07-22T11:40:10;1.83;;;1.70;;
23206;SDS011;11773;52.570;13.052;2023-07-22T11:42:41;1.63;;;1.53;;
23206;SDS011;11773;52.570;13.052;2023-07-22T11:45:12;1.83;;;1.73;;
23206;SDS011;11773;52.570;13.052;2023-07-22T11:47:42;1.80;;;1.70;;
23206;SDS011;11773;52.570;13.052;2023-07-22T11:50:12;2.17;;;1.97;;
23206;SDS011;11773;52.570;13.052;2023-07-22T11:52:41;1.70;;;1.60;;
23206;SDS011;11773;52.570;13.052;2023-07-22T11:55:12;1.97;;;1.87;;
23206;SDS011;11773;52.570;13.052;2023-07-22T11:57:51;1.60;;;1.50;;
23206;SDS011;11773;52.570;13.052;2023-07-22T12:00:22;1.30;;;1.20;;
23206;SDS011;11773;52.570;13.052;2023-07-22T12:02:52;1.03;;;1.03;;
23206;SDS011;11773;52.570;13.052;2023-07-22T12:05:23;1.47;;;1.37;;
23206;SDS011;11773;52.570;13.052;2023-07-22T12:07:53;1.53;;;1.43;;
23206;SDS011;11773;52.570;13.052;2023-07-22T12:10:24;1.93;;;1.70;;
23206;SDS011;11773;52.570;13.052;2023-07-22T12:12:53;1.90;;;1.80;;
23206;SDS011;11773;52.570;13.052;2023-07-22T12:15:24;2.40;;;2.20;;
23206;SDS011;11773;52.570;13.052;2023-07-22T12:17:55;2.10;;;1.90;;
23206;SDS011;11773;52.570;13.052;2023-07-22T12:20:30;2.10;;;1.90;;
23206;SDS011;11773;52.570;13.052;2023-07-22T12:23:06;1.87;;;1.77;;
23206;SDS011;11773;52.570;13.052;2023-07-22T12:25:36;2.13;;;2.00;;
23206;SDS011;11773;52.570;13.052;2023-07-22T12:28:06;1.73;;;1.63;;
23206;SDS011;11773;52.570;13.052;2023-07-22T12:30:37;2.20;;;2.03;;
23206;SDS011;11773;52.570;13.052;2023-07-22T12:33:06;1.60;;;1.50;;
23206;SDS011;11773;52.570;13.052;2023-07-22T12:35:37;1.60;;;1.50;;
23206;SDS011;11773;52.570;13.052;2023-07-22T12:38:06;1.80;;;1.70;;
23206;SDS011;11773;52.570;13.052;2023-07-22T12:40:36;1.93;;;1.83;;
23206;SDS011;11773;52.570;13.052;2023-07-22T12:43:06;1.80;;;1.70;;
23206;SDS011;11773;52.570;13.052;2023-07-22T12:45:36;1.90;;;1.80;;
23206;SDS011;11773;52.570;13.052;2023-07-22T12:48:06;2.30;;;2.10;;
23206;SDS011;11773;52.570;13.052;2023-07-22T12:50:36;1.67;;;1.57;;
23206;SDS011;11773;52.570;13.052;2023-07-22T12:53:05;1.90;;;1.80;;
23206;SDS011;11773;52.570;13.052;2023-07-22T12:55:35;1.90;;;1.80;;
23206;SDS011;11773;52.570;13.052;2023-07-22T12:58:05;1.60;;;1.50;;
23206;SDS011;11773;52.570;13.052;2023-07-22T13:00:35;1.70;;;1.60;;
23206;SDS011;11773;52.570;13.052;2023-07-22T13:03:04;1.70;;;1.60;;
23206;SDS011;11773;52.570;13.052;2023-07-22T13:05:34;1.87;;;1.77;;
23206;SDS011;11773;52.570;13.052;2023-07-22T13:08:03;2.63;;;2.03;;
23206;SDS011;11773;52.570;13.052;2023-07-22T13:10:33;2.53;;;2.33;;
23206;SDS011;11773;52.570;13.052;2023-07-22T13:13:04;1.67;;;1.57;;
23206;SDS011;11773;52.570;13.052;2023-07-22T13:15:34;2.10;;;1.90;;
23206;SDS011;11773;52.570;13.052;2023-07-22T13:18:04;1.87;;;1.77;;
23206;SDS011;11773;52.570;13.052;2023-07-22T13:20:34;2.20;;;2.00;;
23206;SDS011;11773;52.570;13.052;2023-07-22T13:23:04;2.30;;;2.10;;
23206;SDS011;11773;52.570;13.052;2023-07-22T13:25:34;1.80;;;1.70;;
23206;SDS011;11773;52.570;13.052;2023-07-22T13:28:03;1.87;;;1.73;;
23206;SDS011;11773;52.570;13.052;2023-07-22T13:30:33;1.80;;;1.70;;
23206;SDS011;11773;52.570;13.052;2023-07-22T13:33:03;1.43;;;1.33;;
23206;SDS011;11773;52.570;13.052;2023-07-22T13:35:32;2.23;;;2.03;;
23206;SDS011;11773;52.570;13.052;2023-07-22T13:38:02;2.03;;;1.83;;
23206;SDS011;11773;52.570;13.052;2023-07-22T13:40:32;2.47;;;2.03;;
23206;SDS011;11773;52.570;13.052;2023-07-22T13:43:01;1.97;;;1.87;;
23206;SDS011;11773;52.570;13.052;2023-07-22T13:45:32;2.00;;;1.80;;
23206;SDS011;11773;52.570;13.052;2023-07-22T13:48:01;1.70;;;1.60;;
23206;SDS011;11773;52.570;13.052;2023-07-22T13:50:31;1.70;;;1.60;;
23206;SDS011;11773;52.570;13.052;2023-07-22T13:53:02;1.53;;;1.43;;
23206;SDS011;11773;52.570;13.052;2023-07-22T13:55:32;1.50;;;1.40;;
23206;SDS011;11773;52.570;13.052;2023-07-22T13:58:01;1.70;;;1.60;;
23206;SDS011;11773;52.570;13.052;2023-07-22T14:00:31;1.77;;;1.67;;
23206;SDS011;11773;52.570;13.052;2023-07-22T14:03:02;2.17;;;2.00;;
23206;SDS011;11773;52.570;13.052;2023-07-22T14:05:31;1.83;;;1.67;;
23206;SDS011;11773;52.570;13.052;2023-07-22T14:08:01;1.67;;;1.57;;
23206;SDS011;11773;52.570;13.052;2023-07-22T14:10:31;1.63;;;1.53;;
23206;SDS011;11773;52.570;13.052;2023-07-22T14:13:01;1.80;;;1.70;;
23206;SDS011;11773;52.570;13.052;2023-07-22T14:15:30;1.90;;;1.80;;
23206;SDS011;11773;52.570;13.052;2023-07-22T14:18:00;1.43;;;1.33;;
23206;SDS011;11773;52.570;13.052;2023-07-22T14:20:30;6.47;;;1.77;;
23206;SDS011;11773;52.570;13.052;2023-07-22T14:23:01;2.20;;;1.60;;
23206;SDS011;11773;52.570;13.052;2023-07-22T14:25:31;1.53;;;1.43;;
23206;SDS011;11773;52.570;13.052;2023-07-22T14:28:01;1.40;;;1.30;;
23206;SDS011;11773;52.570;13.052;2023-07-22T14:30:31;1.60;;;1.50;;
23206;SDS011;11773;52.570;13.052;2023-07-22T14:33:01;1.57;;;1.47;;
23206;SDS011;11773;52.570;13.052;2023-07-22T14:35:30;1.53;;;1.43;;
23206;SDS011;11773;52.570;13.052;2023-07-22T14:38:01;1.43;;;1.33;;
23206;SDS011;11773;52.570;13.052;2023-07-22T14:40:31;1.47;;;1.37;;
23206;SDS011;11773;52.570;13.052;2023-07-22T14:43:01;1.37;;;1.27;;
23206;SDS011;11773;52.570;13.052;2023-07-22T14:45:31;1.40;;;1.30;;
23206;SDS011;11773;52.570;13.052;2023-07-22T14:48:01;1.40;;;1.30;;
23206;SDS011;11773;52.570;13.052;2023-07-22T14:50:31;1.17;;;1.13;;
23206;SDS011;11773;52.570;13.052;2023-07-22T14:53:00;1.50;;;1.27;;
23206;SDS011;11773;52.570;13.052;2023-07-22T14:55:30;1.40;;;1.30;;
23206;SDS011;11773;52.570;13.052;2023-07-22T14:58:00;1.40;;;1.30;;
23206;SDS011;11773;52.570;13.052;2023-07-22T15:00:29;1.40;;;1.30;;